Time;durP1;ratioP1;P1;durP2;ratioP2;P2;SDS_P1;SDS_P2;PMS_P1;PMS_P2;Temp;Humidity;BMP_temperature;BMP_pressure;BME280_temperature;BME280_humidity;BME280_pressure;Samples;Min_cycle;Max_cycle;Signal;HPM_P1;HPM_P2
2021/11/16 00:00:16;;;;;;;1999.90;999.90;;;;;;;7.65;75.54;102229.00;15633087;28;20034;-62
2021/11/16 00:07:52;;;;;;;1999.90;999.90;;;;;;;7.91;74.63;102224.28;15645553;28;20148;-62
2021/11/16 00:15:25;;;;;;;1999.90;999.90;;;;;;;7.66;75.30;102219.56;15645755;28;20041;-61
2021/11/16 00:22:59;;;;;;;1999.90;999.90;;;;;;;7.64;75.27;102217.06;15624135;28;20045;-60
2021/11/16 00:30:31;;;;;;;1999.90;999.90;;;;;;;7.79;74.84;102230.94;15656344;28;20064;-61
2021/11/16 00:38:06;;;;;;;1999.90;999.90;;;;;;;7.67;75.45;102235.94;15661398;28;20049;-62
2021/11/16 00:45:41;;;;;;;1999.90;999.90;;;;;;;7.69;75.44;102232.88;15651208;28;20460;-63
2021/11/16 00:53:15;;;;;;;1999.90;999.90;;;;;;;7.89;74.81;102230.13;15657079;28;20103;-58
2021/11/16 01:00:48;;;;;;;1999.90;999.90;;;;;;;7.52;76.01;102209.00;15638088;28;20052;-59
2021/11/16 01:08:23;;;;;;;1999.90;999.90;;;;;;;7.90;75.02;102209.53;15634258;28;20057;-60
2021/11/16 01:15:56;;;;;;;1999.90;999.90;;;;;;;7.70;75.37;102192.88;15664590;28;20079;-61
2021/11/16 01:23:30;;;;;;;1999.90;999.90;;;;;;;7.89;75.34;102177.31;15651886;28;20077;-60
2021/11/16 01:31:04;;;;;;;1999.90;999.90;;;;;;;7.64;76.06;102182.88;15711864;22;20044;-60
2021/11/16 01:38:39;;;;;;;1999.90;999.90;;;;;;;7.81;75.29;102178.72;15736357;28;20044;-59
2021/11/16 01:46:14;;;;;;;1999.90;999.90;;;;;;;7.64;76.28;102185.66;15677782;28;20261;-56
2021/11/16 01:53:49;;;;;;;1999.90;999.90;;;;;;;7.67;76.03;102174.81;15672624;28;20041;-60
2021/11/16 02:01:21;;;;;;;1999.90;999.90;;;;;;;7.10;77.40;102159.22;15672397;28;20049;-60
2021/11/16 02:08:57;;;;;;;1999.90;999.90;;;;;;;7.56;76.41;102169.53;15670319;28;20049;-60
2021/11/16 02:16:32;;;;;;;1999.90;999.90;;;;;;;7.22;77.74;102153.41;15661367;28;20083;-59
2021/11/16 02:24:07;;;;;;;1999.90;999.90;;;;;;;7.27;77.27;102145.06;15670339;28;20175;-60
2021/11/16 02:31:40;;;;;;;1999.90;999.90;;;;;;;7.28;77.37;102137.56;15670350;28;20151;-59
2021/11/16 02:39:16;;;;;;;1999.90;999.90;;;;;;;7.63;75.96;102139.56;15670440;28;20122;-59
2021/11/16 02:46:51;;;;;;;1999.90;999.90;;;;;;;7.23;77.15;102132.88;15673546;28;20040;-59
2021/11/16 02:54:25;;;;;;;1999.90;999.90;;;;;;;7.62;76.12;102129.56;15682899;28;20071;-58
2021/11/16 03:01:58;;;;;;;1999.90;999.90;;;;;;;7.75;75.35;102115.91;15682010;28;20045;-60
2021/11/16 03:09:33;;;;;;;1999.90;999.90;;;;;;;7.41;76.50;102110.13;15683909;28;20037;-60
2021/11/16 03:17:06;;;;;;;1999.90;999.90;;;;;;;7.34;76.95;102117.03;15681846;28;20061;-59
2021/11/16 03:24:40;;;;;;;1999.90;999.90;;;;;;;7.23;77.35;102113.44;15680291;28;20553;-61
2021/11/16 03:32:16;;;;;;;1999.90;999.90;;;;;;;7.10;77.88;102117.59;15680999;28;20042;-60
2021/11/16 03:39:50;;;;;;;1999.90;999.90;;;;;;;7.45;76.52;102107.59;15679879;28;20041;-60
2021/11/16 03:47:23;;;;;;;1999.90;999.90;;;;;;;7.32;76.74;102105.38;15678779;28;20122;-60
2021/11/16 03:54:57;;;;;;;1999.90;999.90;;;;;;;7.42;77.15;102108.16;15680981;28;20103;-60
2021/11/16 04:02:29;;;;;;;1999.90;999.90;;;;;;;7.44;76.76;102098.44;15678154;28;20083;-60
2021/11/16 04:10:07;;;;;;;1999.90;999.90;;;;;;;7.18;78.06;102086.47;15678482;28;20127;-60
2021/11/16 04:17:43;;;;;;;1999.90;999.90;;;;;;;7.19;77.84;102087.31;15676928;28;20063;-59
2021/11/16 04:25:18;;;;;;;1999.90;999.90;;;;;;;7.42;77.08;102066.50;15677439;28;20390;-60
2021/11/16 04:32:53;;;;;;;1999.90;999.90;;;;;;;7.30;77.53;102049.31;15677265;28;20485;-60
2021/11/16 04:40:32;;;;;;;1999.90;999.90;;;;;;;7.39;77.18;102065.09;15676589;28;20110;-59
2021/11/16 04:48:09;;;;;;;1999.90;999.90;;;;;;;7.59;76.86;102057.84;15676182;28;20046;-61
2021/11/16 04:55:52;;;;;;;1999.90;999.90;;;;;;;7.20;78.25;102061.25;15675875;28;20151;-60
2021/11/16 05:03:24;;;;;;;1999.90;999.90;;;;;;;7.25;78.08;102047.34;15673935;28;20075;-61
2021/11/16 05:10:58;;;;;;;1999.90;999.90;;;;;;;7.14;79.11;102056.78;15674674;28;20052;-60
2021/11/16 05:18:31;;;;;;;1999.90;999.90;;;;;;;7.12;79.05;102050.69;15672566;28;20087;-60
2021/11/16 05:26:05;;;;;;;1999.90;999.90;;;;;;;7.36;78.19;102057.34;15672228;28;20103;-59
2021/11/16 05:33:37;;;;;;;1999.90;999.90;;;;;;;7.18;79.12;102055.94;15672786;28;20037;-58
2021/11/16 05:41:12;;;;;;;1999.90;999.90;;;;;;;7.39;78.31;102056.75;15671774;28;20041;-61
2021/11/16 05:48:45;;;;;;;1999.90;999.90;;;;;;;7.29;78.64;102062.31;15671489;28;20115;-61
2021/11/16 05:56:22;;;;;;;1999.90;999.90;;;;;;;7.64;76.95;102060.63;15672719;28;20045;-60
2021/11/16 06:03:55;;;;;;;1999.90;999.90;;;;;;;7.47;77.99;102072.03;15670778;28;20087;-59
2021/11/16 06:11:30;;;;;;;1999.90;999.90;;;;;;;7.33;77.81;102068.16;15672634;28;20052;-60
2021/11/16 06:19:06;;;;;;;1999.90;999.90;;;;;;;7.61;77.71;102070.38;15632265;28;20075;-59
2021/11/16 06:26:40;;;;;;;1999.90;999.90;;;;;;;7.33;78.29;102070.94;15674947;28;20417;-61
2021/11/16 06:34:15;;;;;;;1999.90;999.90;;;;;;;7.20;79.22;102086.22;15679404;28;20040;-59
2021/11/16 06:41:50;;;;;;;1999.90;999.90;;;;;;;7.44;78.24;102087.31;15682445;28;20365;-60
2021/11/16 06:49:24;;;;;;;1999.90;999.90;;;;;;;7.59;77.63;102091.19;15674037;28;20034;-61
2021/11/16 06:56:58;;;;;;;1999.90;999.90;;;;;;;7.57;76.98;102085.09;15681748;28;20045;-60
2021/11/16 07:04:36;;;;;;;1999.90;999.90;;;;;;;7.18;78.19;102099.53;15682424;28;20049;-60
2021/11/16 07:12:14;;;;;;;1999.90;999.90;;;;;;;7.21;78.55;102096.22;15681932;28;20379;-59
2021/11/16 07:19:52;;;;;;;1999.90;999.90;;;;;;;7.95;76.05;102089.19;15681556;28;20048;-59
2021/11/16 07:27:35;;;;;;;1999.90;999.90;;;;;;;7.70;77.19;102084.50;15702449;22;20045;-64
2021/11/16 07:35:09;;;;;;;1999.90;999.90;;;;;;;7.76;77.82;102086.16;15745065;28;20041;-67
2021/11/16 07:42:49;;;;;;;1999.90;999.90;;;;;;;8.19;76.05;102078.25;15746917;28;20040;-64
2021/11/16 07:50:39;;;;;;;1999.90;999.90;;;;;;;8.06;76.72;102063.84;15739414;28;20044;-64
2021/11/16 07:58:14;;;;;;;1999.90;999.90;;;;;;;8.03;76.77;102067.22;15740644;28;20091;-65
2021/11/16 08:05:56;;;;;;;1999.90;999.90;;;;;;;8.23;76.25;102032.94;15734352;28;20142;-63
2021/11/16 08:13:31;;;;;;;1999.90;999.90;;;;;;;8.35;76.29;102040.97;15740002;28;20134;-64
2021/11/16 08:21:04;;;;;;;1999.90;999.90;;;;;;;8.24;76.51;102040.16;15743658;28;20040;-63
2021/11/16 08:28:41;;;;;;;1999.90;999.90;;;;;;;8.36;76.42;102037.91;15718721;28;20071;-64
2021/11/16 08:36:13;;;;;;;1999.90;999.90;;;;;;;8.27;76.10;102035.97;15739789;28;20570;-63
2021/11/16 08:43:47;;;;;;;1999.90;999.90;;;;;;;8.62;74.96;102041.34;15738909;28;20128;-63
2021/11/16 08:51:20;;;;;;;1999.90;999.90;;;;;;;8.58;75.41;102019.97;15741391;28;20098;-62
2021/11/16 08:58:54;;;;;;;1999.90;999.90;;;;;;;8.63;75.19;102028.25;15722793;28;20382;-62
2021/11/16 09:06:28;;;;;;;1999.90;999.90;;;;;;;8.92;73.48;102023.59;15712945;28;20044;-62
2021/11/16 09:14:12;;;;;;;1999.90;999.90;;;;;;;9.21;73.50;102017.25;15740388;28;20036;-63
2021/11/16 09:21:45;;;;;;;1999.90;999.90;;;;;;;9.34;72.05;102011.00;15728637;28;20128;-63
2021/11/16 09:29:22;;;;;;;1999.90;999.90;;;;;;;9.26;72.71;102009.66;15738775;28;20444;-64
2021/11/16 09:36:58;;;;;;;1999.90;999.90;;;;;;;9.15;73.13;102004.47;15739002;28;20479;-63
2021/11/16 09:44:34;;;;;;;1999.90;999.90;;;;;;;9.61;71.93;102001.25;15739038;28;20052;-64
2021/11/16 09:52:11;;;;;;;1999.90;999.90;;;;;;;9.65;72.35;101996.75;15734767;28;20162;-63
2021/11/16 09:59:47;;;;;;;1999.90;999.90;;;;;;;9.83;71.40;101982.88;15735643;28;20040;-62
2021/11/16 10:07:22;;;;;;;1999.90;999.90;;;;;;;9.83;71.17;101980.06;15739080;28;20106;-63
2021/11/16 10:14:57;;;;;;;1999.90;999.90;;;;;;;10.22;69.96;101981.03;15719969;28;20064;-62
2021/11/16 10:22:29;;;;;;;1999.90;999.90;;;;;;;10.41;69.04;101968.72;15737763;28;20520;-64
2021/11/16 10:30:14;;;;;;;1999.90;999.90;;;;;;;9.79;71.15;101967.84;15737023;28;20133;-64
2021/11/16 10:37:49;;;;;;;1999.90;999.90;;;;;;;9.46;72.69;101955.69;15729044;28;20041;-62
2021/11/16 10:45:25;;;;;;;1999.90;999.90;;;;;;;10.10;70.73;101948.75;15726383;28;20072;-64
2021/11/16 10:53:03;;;;;;;1999.90;999.90;;;;;;;10.12;71.22;101942.91;15731461;28;20076;-63
2021/11/16 11:00:42;;;;;;;1999.90;999.90;;;;;;;10.44;70.61;101932.97;15725988;28;20449;-62
2021/11/16 11:08:41;;;;;;;1999.90;999.90;;;;;;;10.58;69.49;101919.91;15719302;28;20063;-62
2021/11/16 11:16:18;;;;;;;1999.90;999.90;;;;;;;10.55;69.60;101928.91;15746058;28;20569;-62
2021/11/16 11:23:54;;;;;;;1999.90;999.90;;;;;;;10.34;70.08;101925.59;15739907;28;20051;-63
2021/11/16 11:31:29;;;;;;;1999.90;999.90;;;;;;;10.67;69.20;101910.53;15740492;28;20059;-62
2021/11/16 11:39:02;;;;;;;1999.90;999.90;;;;;;;10.40;70.09;101908.44;15741026;28;20045;-63
2021/11/16 11:46:51;;;;;;;1999.90;999.90;;;;;;;10.64;69.91;101896.38;15742540;28;20080;-63
2021/11/16 11:54:23;;;;;;;1999.90;999.90;;;;;;;10.86;68.81;101888.16;15723307;28;20040;-62
2021/11/16 12:01:57;;;;;;;1999.90;999.90;;;;;;;10.35;70.57;101893.78;15740522;28;20041;-61
2021/11/16 12:09:31;;;;;;;1999.90;999.90;;;;;;;10.03;71.29;101880.56;15739299;28;20040;-63
2021/11/16 12:17:09;;;;;;;1999.90;999.90;;;;;;;10.31;70.66;101881.53;15739037;28;20059;-63
2021/11/16 12:24:46;;;;;;;1999.90;999.90;;;;;;;10.43;70.16;101862.41;15739612;28;20037;-63
2021/11/16 12:32:23;;;;;;;1999.90;999.90;;;;;;;10.41;70.25;101850.69;15706493;28;1022825;-63
2021/11/16 12:39:57;;;;;;;1999.90;999.90;;;;;;;10.42;70.69;101838.41;15742790;28;20059;-63
2021/11/16 12:47:32;;;;;;;1999.90;999.90;;;;;;;10.57;70.22;101821.38;15740681;28;20048;-63
2021/11/16 12:55:15;;;;;;;1999.90;999.90;;;;;;;10.42;70.40;101816.09;15741568;28;20064;-63
2021/11/16 13:02:51;;;;;;;1999.90;999.90;;;;;;;10.75;69.50;101810.47;15741074;28;20037;-63
2021/11/16 13:10:28;;;;;;;1999.90;999.90;;;;;;;10.57;70.48;101803.81;15739733;28;20115;-63
2021/11/16 13:18:07;;;;;;;1999.90;999.90;;;;;;;10.61;70.23;101794.50;15727754;28;20108;-63
2021/11/16 13:25:43;;;;;;;1999.90;999.90;;;;;;;10.63;69.95;101797.03;15732032;28;20040;-63
2021/11/16 13:33:44;;;;;;;1999.90;999.90;;;;;;;10.33;70.88;101788.06;15728734;28;20144;-63
2021/11/16 13:41:45;;;;;;;1999.90;999.90;;;;;;;10.45;70.63;101781.97;15737121;28;20048;-63
2021/11/16 13:49:25;;;;;;;1999.90;999.90;;;;;;;10.31;71.38;101781.09;15736839;28;20048;-64
2021/11/16 13:57:03;;;;;;;1999.90;999.90;;;;;;;10.42;71.10;101777.03;15712580;28;20151;-63
2021/11/16 14:04:37;;;;;;;1999.90;999.90;;;;;;;10.30;71.30;101766.31;15727828;28;20044;-62
2021/11/16 14:12:10;;;;;;;1999.90;999.90;;;;;;;10.17;71.38;101760.69;15734909;28;20331;-63
2021/11/16 14:19:49;;;;;;;1999.90;999.90;;;;;;;10.27;71.71;101752.16;15732220;28;20051;-62
2021/11/16 14:27:23;;;;;;;1999.90;999.90;;;;;;;10.14;71.88;101750.97;15731888;28;20048;-64
2021/11/16 14:34:57;;;;;;;1999.90;999.90;;;;;;;10.47;71.05;101748.19;15734845;28;20040;-64
2021/11/16 14:42:31;;;;;;;1999.90;999.90;;;;;;;10.38;71.47;101746.09;15733833;28;20186;-63
2021/11/16 14:50:12;;;;;;;1999.90;999.90;;;;;;;10.51;70.96;101749.22;15749387;28;20080;-63
2021/11/16 14:57:48;;;;;;;1999.90;999.90;;;;;;;10.46;71.07;101744.56;15735441;28;20068;-63
2021/11/16 15:05:23;;;;;;;1999.90;999.90;;;;;;;10.24;71.81;101745.25;15732433;28;20405;-63
2021/11/16 15:12:57;;;;;;;1999.90;999.90;;;;;;;10.26;71.78;101740.19;15720308;28;20106;-62
2021/11/16 15:20:41;;;;;;;1999.90;999.90;;;;;;;10.27;71.87;101743.81;15720129;28;20061;-63
2021/11/16 15:28:16;;;;;;;1999.90;999.90;;;;;;;10.07;72.03;101728.22;15731030;28;20040;-62
2021/11/16 15:35:57;;;;;;;1999.90;999.90;;;;;;;10.13;71.90;101727.00;15730683;28;20056;-63
2021/11/16 15:51:31;;;;;;;1999.90;999.90;;;;;;;10.13;72.17;101727.00;15715795;28;20044;-65
2021/11/16 15:59:04;;;;;;;1999.90;999.90;;;;;;;10.01;71.95;101726.66;15716037;28;20198;-64
2021/11/16 16:06:39;;;;;;;1999.90;999.90;;;;;;;9.93;72.41;101721.78;15736181;28;20052;-62
2021/11/16 16:14:14;;;;;;;1999.90;999.90;;;;;;;9.40;74.15;101714.50;15738686;28;20075;-65
2021/11/16 16:21:50;;;;;;;1999.90;999.90;;;;;;;9.78;73.12;101703.31;15731816;28;20036;-63
2021/11/16 16:29:22;;;;;;;1999.90;999.90;;;;;;;9.58;73.10;101692.50;15714166;28;20127;-63
2021/11/16 16:36:58;;;;;;;1999.90;999.90;;;;;;;9.66;72.97;101697.41;15727514;28;20040;-64
2021/11/16 16:44:31;;;;;;;1999.90;999.90;;;;;;;9.56;73.23;101695.59;15698067;28;20045;-65
2021/11/16 16:52:05;;;;;;;1999.90;999.90;;;;;;;9.07;75.05;101690.50;15722086;28;20045;-61
2021/11/16 16:59:38;;;;;;;1999.90;999.90;;;;;;;9.12;75.01;101698.75;15706252;28;20218;-63
2021/11/16 17:07:15;;;;;;;1999.90;999.90;;;;;;;9.20;74.87;101692.53;15735568;28;20093;-61
2021/11/16 17:14:49;;;;;;;1999.90;999.90;;;;;;;9.15;74.89;101687.84;15719506;28;20068;-61
2021/11/16 17:22:24;;;;;;;1999.90;999.90;;;;;;;9.05;75.49;101687.97;15678693;28;20573;-63
2021/11/16 17:29:57;;;;;;;1999.90;999.90;;;;;;;9.30;74.41;101680.41;15731314;28;20045;-63
2021/11/16 17:37:31;;;;;;;1999.90;999.90;;;;;;;9.17;74.96;101666.13;15735856;28;20052;-62
2021/11/16 17:45:06;;;;;;;1999.90;999.90;;;;;;;9.53;73.38;101673.91;15706550;28;20127;-63
2021/11/16 17:52:40;;;;;;;1999.90;999.90;;;;;;;9.22;74.38;101674.38;15726550;28;20050;-63
2021/11/16 18:00:13;;;;;;;1999.90;999.90;;;;;;;9.29;74.12;101673.19;15712532;28;20045;-63
2021/11/16 18:08:00;;;;;;;1999.90;999.90;;;;;;;9.17;73.87;101671.69;15732113;28;20060;-62
2021/11/16 18:15:33;;;;;;;1999.90;999.90;;;;;;;8.96;74.54;101671.13;15728392;28;20087;-63
2021/11/16 18:23:08;;;;;;;1999.90;999.90;;;;;;;9.34;73.53;101659.16;15704676;28;20044;-63
2021/11/16 18:30:45;;;;;;;1999.90;999.90;;;;;;;9.09;73.80;101655.63;15695270;28;20046;-63
2021/11/16 18:38:25;;;;;;;1999.90;999.90;;;;;;;9.00;74.71;101651.88;15726176;28;20459;-61
2021/11/16 18:46:01;;;;;;;1999.90;999.90;;;;;;;8.54;76.86;101649.66;15739271;28;20052;-63
2021/11/16 18:53:35;;;;;;;1999.90;999.90;;;;;;;8.89;76.01;101631.69;15720565;28;20047;-65
2021/11/16 19:01:08;;;;;;;1999.90;999.90;;;;;;;9.26;74.30;101633.66;15689858;28;20049;-62
2021/11/16 19:08:42;;;;;;;1999.90;999.90;;;;;;;9.21;74.15;101636.53;15704564;28;20519;-63
2021/11/16 19:16:15;;;;;;;1999.90;999.90;;;;;;;9.32;73.47;101639.97;15703832;28;20120;-62
2021/11/16 19:23:49;;;;;;;1999.90;999.90;;;;;;;9.27;73.56;101634.47;15727509;28;20359;-64
2021/11/16 19:31:22;;;;;;;1999.90;999.90;;;;;;;9.49;72.89;101633.88;15742065;28;20040;-61
2021/11/16 19:39:08;;;;;;;1999.90;999.90;;;;;;;9.62;72.30;101626.69;15746632;28;20072;-59
2021/11/16 19:46:41;;;;;;;1999.90;999.90;;;;;;;9.52;72.38;101639.66;15746288;28;20033;-57
2021/11/16 19:54:15;;;;;;;1999.90;999.90;;;;;;;9.42;73.31;101634.25;15745511;28;20490;-59
2021/11/16 20:01:48;;;;;;;1999.90;999.90;;;;;;;9.62;72.54;101644.22;15712339;28;20196;-61
2021/11/16 20:09:22;;;;;;;1999.90;999.90;;;;;;;9.68;72.63;101640.22;15702448;28;20059;-62
2021/11/16 20:16:54;;;;;;;1999.90;999.90;;;;;;;9.58;72.29;101640.38;15724742;28;20071;-61
2021/11/16 20:24:28;;;;;;;1999.90;999.90;;;;;;;9.68;71.44;101634.63;15725874;28;20423;-61
2021/11/16 20:32:05;;;;;;;1999.90;999.90;;;;;;;9.61;69.87;101637.00;15693636;28;20108;-60
2021/11/16 20:39:46;;;;;;;1999.90;999.90;;;;;;;9.58;69.24;101633.97;15704741;28;20057;-63
2021/11/16 20:47:39;;;;;;;1999.90;999.90;;;;;;;9.50;68.68;101632.75;15732066;28;20115;-61
2021/11/16 21:03:09;;;;;;;1999.90;999.90;;;;;;;9.45;68.42;101643.94;15665023;28;20048;-61
2021/11/16 21:10:43;;;;;;;1999.90;999.90;;;;;;;9.33;68.28;101638.84;15704071;28;20049;-64
2021/11/16 21:18:15;;;;;;;1999.90;999.90;;;;;;;9.06;68.22;101624.75;15741264;28;20064;-64
2021/11/16 21:25:49;;;;;;;1999.90;999.90;;;;;;;9.27;67.61;101626.13;15718834;28;20079;-64
2021/11/16 21:33:22;;;;;;;1999.90;999.90;;;;;;;9.42;67.51;101616.72;15732296;28;20036;-62
2021/11/16 21:40:56;;;;;;;1999.90;999.90;;;;;;;9.20;67.68;101609.81;15698872;28;20123;-62
2021/11/16 21:48:29;;;;;;;1999.90;999.90;;;;;;;9.09;67.53;101593.56;15694176;28;20166;-60
2021/11/16 21:56:05;;;;;;;1999.90;999.90;;;;;;;8.95;67.36;101599.84;15696469;28;20037;-62
2021/11/16 22:03:38;;;;;;;1999.90;999.90;;;;;;;8.88;67.42;101599.44;15732908;28;20045;-63
2021/11/16 22:18:43;;;;;;;1999.90;999.90;;;;;;;9.12;67.23;101599.34;15713853;28;20459;-60
2021/11/16 22:26:17;;;;;;;1999.90;999.90;;;;;;;9.03;67.57;101606.72;15694940;28;20056;-61
2021/11/16 22:33:52;;;;;;;1999.90;999.90;;;;;;;8.88;67.17;101601.38;15706658;28;20424;-61
2021/11/16 22:41:29;;;;;;;1999.90;999.90;;;;;;;9.15;67.24;101603.47;15689329;28;20056;-62
2021/11/16 22:49:03;;;;;;;1999.90;999.90;;;;;;;9.03;67.26;101603.94;15726440;28;20495;-61
2021/11/16 22:56:37;;;;;;;1999.90;999.90;;;;;;;9.25;66.81;101595.78;15712540;28;20549;-62
